Terminal Aerodrome Forecast
Issued by NWS Salt Lake City, UT

Home | Current Version | Previous Version | Text Only | Print | Product List | Glossary On
Versions: 1 2 3 4 5 6 7 8 9 10 11 12 13 14 15 16 17
000
FTUS45 KSLC 210521
TAFCDC
TAF
KCDC 210521Z 2106/2206 19020G28KT P6SM SKC
     FM211400 20025G33KT P6SM FEW120
     FM211800 21030G39KT P6SM FEW120
     FM220400 23018G22KT P6SM -SHRA SCT040 BKN060=

USA.gov is the U.S. government's official web portal to all federal, state and local government web resources and services.